createdAt,value
2023-05-17T00:02:24.937Z,16.83
2023-05-17T00:04:53.710Z,16.83
2023-05-17T00:07:21.893Z,16.80
2023-05-17T00:09:49.860Z,16.76
2023-05-17T00:12:20.720Z,16.71
2023-05-17T00:14:48.798Z,16.69
2023-05-17T00:17:17.032Z,16.68
2023-05-17T00:19:45.107Z,16.64
2023-05-17T00:22:13.164Z,16.60
2023-05-17T00:24:41.148Z,16.58
2023-05-17T00:27:09.212Z,16.57
2023-05-17T00:29:37.416Z,16.59
2023-05-17T00:32:06.158Z,16.62
2023-05-17T00:34:34.188Z,16.63
2023-05-17T00:37:02.259Z,16.63
2023-05-17T00:39:30.414Z,16.64
2023-05-17T00:42:01.344Z,16.65
2023-05-17T00:44:29.460Z,16.63
2023-05-17T00:47:00.040Z,16.61
2023-05-17T00:49:28.258Z,16.58
2023-05-17T00:51:56.492Z,16.53
2023-05-17T00:54:26.442Z,16.50
2023-05-17T00:56:54.991Z,16.48
2023-05-17T00:59:23.692Z,16.48
2023-05-17T01:01:52.628Z,16.47
2023-05-17T01:04:21.218Z,16.48
2023-05-17T01:06:49.460Z,16.48
2023-05-17T01:09:18.320Z,16.48
2023-05-17T01:12:18.147Z,16.46
2023-05-17T01:15:02.027Z,16.43
2023-05-17T01:17:47.273Z,16.41
2023-05-17T01:20:26.476Z,16.36
2023-05-17T01:23:13.278Z,16.30
2023-05-17T01:26:22.432Z,16.24
2023-05-17T01:28:54.573Z,16.20
2023-05-17T01:31:23.664Z,16.17
2023-05-17T01:33:51.703Z,16.15
2023-05-17T01:36:20.857Z,16.13
2023-05-17T01:38:49.031Z,16.14
2023-05-17T01:41:47.039Z,16.16
2023-05-17T01:44:33.389Z,16.19
2023-05-17T01:47:18.708Z,16.20
2023-05-17T01:49:51.648Z,16.22
2023-05-17T01:52:29.701Z,16.22
2023-05-17T01:55:10.796Z,16.21
2023-05-17T01:57:44.484Z,16.19
2023-05-17T02:00:14.099Z,16.20
2023-05-17T02:02:47.534Z,16.21
2023-05-17T02:05:15.856Z,16.21
2023-05-17T02:07:44.005Z,16.20
2023-05-17T02:10:12.392Z,16.18
2023-05-17T02:12:44.012Z,16.18
2023-05-17T02:15:13.965Z,16.18
2023-05-17T02:17:42.280Z,16.17
2023-05-17T02:20:12.053Z,16.17
2023-05-17T02:22:40.503Z,16.17
2023-05-17T02:25:09.113Z,16.17
2023-05-17T02:27:37.090Z,16.18
2023-05-17T02:30:06.893Z,16.19
2023-05-17T02:32:35.473Z,16.20
2023-05-17T02:35:04.067Z,16.19
2023-05-17T02:37:32.728Z,16.15
2023-05-17T02:40:01.457Z,16.11
2023-05-17T02:42:29.358Z,16.08
2023-05-17T02:44:58.133Z,16.03
2023-05-17T02:47:26.371Z,15.97
2023-05-17T02:49:54.526Z,15.93
2023-05-17T02:52:22.622Z,15.86
2023-05-17T02:54:51.816Z,15.81
2023-05-17T02:57:20.130Z,15.77
2023-05-17T02:59:48.822Z,15.72
2023-05-17T03:02:17.232Z,15.66
2023-05-17T03:04:45.695Z,15.61
2023-05-17T03:07:14.014Z,15.53
2023-05-17T03:09:43.108Z,15.46
2023-05-17T03:12:11.553Z,15.38
2023-05-17T03:14:40.067Z,15.33
2023-05-17T03:17:08.050Z,15.30
2023-05-17T03:19:36.449Z,15.27
2023-05-17T03:22:05.177Z,15.26
2023-05-17T03:24:35.090Z,15.27
2023-05-17T03:27:04.549Z,15.28
2023-05-17T03:29:33.483Z,15.28
2023-05-17T03:32:02.139Z,15.29
2023-05-17T03:34:31.088Z,15.31
2023-05-17T03:36:59.346Z,15.34
2023-05-17T03:39:27.822Z,15.36
2023-05-17T03:41:56.460Z,15.37
2023-05-17T03:44:25.016Z,15.40
2023-05-17T03:46:54.430Z,15.43
2023-05-17T03:49:23.837Z,15.44
2023-05-17T03:51:52.209Z,15.44
2023-05-17T03:54:20.243Z,15.46
2023-05-17T03:56:50.284Z,15.49
2023-05-17T03:59:19.485Z,15.51
2023-05-17T04:01:48.485Z,15.52
2023-05-17T04:04:16.662Z,15.54
2023-05-17T04:06:44.942Z,15.55
2023-05-17T04:09:15.692Z,15.53
2023-05-17T04:11:44.197Z,15.48
2023-05-17T04:14:13.263Z,15.41
2023-05-17T04:16:41.677Z,15.33
2023-05-17T04:19:10.667Z,15.21
2023-05-17T04:21:39.476Z,15.10
2023-05-17T04:24:08.145Z,15.02
2023-05-17T04:26:36.188Z,14.95
2023-05-17T04:29:04.554Z,14.87
2023-05-17T04:31:33.842Z,14.79
2023-05-17T04:34:02.695Z,14.71
2023-05-17T04:36:33.739Z,14.59
2023-05-17T04:39:03.845Z,14.49
2023-05-17T04:41:33.597Z,14.42
2023-05-17T04:44:04.553Z,14.39
2023-05-17T04:46:35.576Z,14.37
2023-05-17T04:49:04.376Z,14.33
2023-05-17T04:51:33.208Z,14.28
2023-05-17T04:54:01.946Z,14.19
2023-05-17T04:56:33.564Z,14.10
2023-05-17T04:59:03.347Z,14.01
2023-05-17T05:01:32.138Z,13.94
2023-05-17T05:04:01.086Z,13.89
2023-05-17T05:06:29.872Z,13.85
2023-05-17T05:08:58.068Z,13.80
2023-05-17T05:11:27.678Z,13.73
2023-05-17T05:13:56.717Z,13.63
2023-05-17T05:16:25.567Z,13.56
2023-05-17T05:18:54.446Z,13.49
2023-05-17T05:21:23.489Z,13.42
2023-05-17T05:23:51.879Z,13.34
2023-05-17T05:26:20.308Z,13.27
2023-05-17T05:28:49.069Z,13.18
2023-05-17T05:31:17.380Z,13.16
2023-05-17T05:33:50.326Z,13.15
2023-05-17T05:36:18.846Z,13.15
2023-05-17T05:38:48.973Z,13.16
2023-05-17T05:41:17.333Z,13.17
2023-05-17T05:43:45.572Z,13.19
2023-05-17T05:46:14.609Z,13.21
2023-05-17T05:48:45.017Z,13.22
2023-05-17T05:51:16.160Z,13.23
2023-05-17T05:53:44.382Z,13.26
2023-05-17T05:56:12.581Z,13.29
2023-05-17T05:58:41.005Z,13.35
2023-05-17T06:01:10.344Z,13.41
2023-05-17T06:03:38.645Z,13.48
2023-05-17T06:06:07.143Z,13.55
2023-05-17T06:08:35.962Z,13.58
2023-05-17T06:11:04.196Z,13.63
2023-05-17T06:13:32.434Z,13.67
2023-05-17T06:16:01.266Z,13.70
2023-05-17T06:18:29.802Z,13.72
2023-05-17T06:20:58.725Z,13.74
2023-05-17T06:23:27.572Z,13.78
2023-05-17T06:25:56.118Z,13.86
2023-05-17T06:28:24.544Z,13.94
2023-05-17T06:30:53.134Z,14.00
2023-05-17T06:33:21.696Z,14.05
2023-05-17T06:35:56.584Z,14.13
2023-05-17T06:38:26.437Z,14.23
2023-05-17T06:40:56.356Z,14.28
2023-05-17T06:43:24.575Z,14.29
2023-05-17T06:45:52.868Z,14.36
2023-05-17T06:48:21.532Z,14.37
2023-05-17T06:50:49.993Z,14.39
2023-05-17T06:53:19.462Z,14.43
2023-05-17T06:55:47.846Z,14.51
2023-05-17T06:58:16.248Z,14.59
2023-05-17T07:00:44.703Z,14.70
2023-05-17T07:03:13.090Z,14.78
2023-05-17T07:05:41.290Z,14.84
2023-05-17T07:08:09.451Z,14.90
2023-05-17T07:10:38.008Z,14.96
2023-05-17T07:13:06.719Z,14.97
2023-05-17T07:15:35.175Z,14.93
2023-05-17T07:18:03.885Z,14.94
2023-05-17T07:20:32.610Z,14.96
2023-05-17T07:23:01.124Z,14.97
2023-05-17T07:25:30.105Z,15.00
2023-05-17T07:27:58.512Z,15.07
2023-05-17T07:30:26.887Z,15.15
2023-05-17T07:32:55.341Z,15.22
2023-05-17T07:35:23.862Z,15.29
2023-05-17T07:37:52.211Z,15.33
2023-05-17T07:40:22.132Z,15.39
2023-05-17T07:42:50.754Z,15.44
2023-05-17T07:45:19.453Z,15.52
2023-05-17T07:47:48.076Z,15.59
2023-05-17T07:50:16.624Z,15.63
2023-05-17T07:52:45.505Z,15.59
2023-05-17T07:55:16.022Z,15.52
2023-05-17T07:57:47.483Z,15.52
2023-05-17T08:00:19.456Z,15.53
2023-05-17T08:02:47.713Z,15.51
2023-05-17T08:05:16.207Z,15.47
2023-05-17T08:07:44.722Z,15.39
2023-05-17T08:10:12.997Z,15.26
2023-05-17T08:12:41.300Z,15.17
2023-05-17T08:15:10.260Z,15.10
2023-05-17T08:17:38.625Z,15.05
2023-05-17T08:20:08.323Z,15.05
2023-05-17T08:22:37.420Z,14.99
2023-05-17T08:25:06.579Z,14.89
2023-05-17T08:27:34.959Z,14.90
2023-05-17T08:30:07.015Z,14.88
2023-05-17T08:32:38.556Z,14.80
2023-05-17T08:35:07.307Z,14.73
2023-05-17T08:37:35.653Z,14.71
2023-05-17T08:40:05.131Z,14.77
2023-05-17T08:42:35.211Z,14.82
2023-05-17T08:45:05.573Z,14.83
2023-05-17T08:47:38.058Z,14.86
2023-05-17T08:50:07.921Z,14.91
2023-05-17T08:52:37.972Z,14.94
2023-05-17T08:55:09.331Z,14.94
2023-05-17T08:57:40.518Z,14.92
2023-05-17T09:00:14.192Z,14.92
2023-05-17T09:02:43.273Z,14.98
2023-05-17T09:05:14.431Z,15.09
2023-05-17T09:07:43.160Z,15.17
2023-05-17T09:10:11.434Z,15.21
2023-05-17T09:12:40.853Z,15.26
2023-05-17T09:15:21.003Z,15.32
2023-05-17T09:17:57.862Z,15.33
2023-05-17T09:20:35.308Z,15.25
2023-05-17T09:23:04.737Z,15.21
2023-05-17T09:25:33.994Z,15.22
2023-05-17T09:28:11.669Z,15.25
2023-05-17T09:30:42.258Z,15.26
2023-05-17T09:33:13.250Z,15.27
2023-05-17T09:35:44.136Z,15.19
2023-05-17T09:38:14.159Z,15.15
2023-05-17T09:40:48.105Z,15.14
2023-05-17T09:43:23.242Z,15.12
2023-05-17T09:45:58.954Z,15.06
2023-05-17T09:48:30.368Z,14.91
2023-05-17T09:51:01.283Z,14.75
2023-05-17T09:53:31.148Z,14.60
2023-05-17T09:56:05.822Z,14.51
2023-05-17T09:58:36.699Z,14.45
2023-05-17T10:01:10.161Z,14.41
2023-05-17T10:03:39.540Z,14.38
2023-05-17T10:06:13.266Z,14.31
2023-05-17T10:08:55.398Z,14.28
2023-05-17T10:11:34.483Z,14.32
2023-05-17T10:14:12.451Z,14.41
2023-05-17T10:16:41.756Z,14.43
2023-05-17T10:19:11.957Z,14.45
2023-05-17T10:21:41.608Z,14.47
2023-05-17T10:24:11.544Z,14.51
2023-05-17T10:26:41.277Z,14.56
2023-05-17T10:29:10.234Z,14.62
2023-05-17T10:31:41.388Z,14.74
2023-05-17T10:34:12.002Z,14.80
2023-05-17T10:36:43.787Z,14.77
2023-05-17T10:39:12.856Z,14.74
2023-05-17T10:41:44.101Z,14.75
2023-05-17T10:44:16.526Z,14.75
2023-05-17T10:46:56.577Z,14.73
2023-05-17T10:49:27.519Z,14.82
2023-05-17T10:52:00.522Z,14.91
2023-05-17T10:54:36.922Z,14.92
2023-05-17T10:57:09.024Z,14.96
2023-05-17T10:59:57.318Z,15.02
2023-05-17T11:02:27.807Z,15.00
2023-05-17T11:04:56.779Z,15.10
2023-05-17T11:07:29.724Z,15.33
2023-05-17T11:10:03.969Z,15.67
2023-05-17T11:12:43.051Z,16.05
2023-05-17T11:15:16.056Z,16.35
2023-05-17T11:17:44.715Z,16.60
2023-05-17T11:20:17.291Z,16.68
2023-05-17T11:23:05.266Z,16.85
2023-05-17T11:25:40.941Z,16.98
2023-05-17T11:28:18.699Z,17.04
2023-05-17T11:30:54.212Z,17.03
2023-05-17T11:33:39.290Z,17.00
2023-05-17T11:36:19.710Z,16.87
2023-05-17T11:39:13.539Z,16.88
2023-05-17T11:41:53.676Z,16.96
2023-05-17T11:44:34.943Z,17.00
2023-05-17T11:47:06.001Z,17.03
2023-05-17T11:49:37.837Z,17.12
2023-05-17T11:52:08.194Z,17.25
2023-05-17T11:54:39.108Z,17.35
2023-05-17T11:57:08.796Z,17.43
2023-05-17T11:59:40.180Z,17.52
2023-05-17T12:02:09.113Z,17.58
2023-05-17T12:04:39.475Z,17.59
2023-05-17T12:07:11.668Z,17.61
2023-05-17T12:09:40.930Z,17.55
2023-05-17T12:12:09.974Z,17.44
2023-05-17T12:14:38.313Z,17.45
2023-05-17T12:17:09.782Z,17.49
2023-05-17T12:19:38.310Z,17.50
2023-05-17T12:22:14.971Z,17.47
2023-05-17T12:24:43.943Z,17.41
2023-05-17T12:27:12.321Z,17.39
2023-05-17T12:29:41.229Z,17.40
2023-05-17T12:32:11.221Z,17.33
2023-05-17T12:34:41.032Z,17.28
2023-05-17T12:37:11.022Z,17.32
2023-05-17T12:39:40.551Z,17.40
2023-05-17T12:42:09.731Z,17.44
2023-05-17T12:44:38.111Z,17.44
2023-05-17T12:47:06.693Z,17.43
2023-05-17T12:49:39.673Z,17.39
2023-05-17T12:52:08.178Z,17.25
2023-05-17T12:54:37.011Z,17.19
2023-05-17T12:57:14.160Z,17.16
2023-05-17T12:59:52.148Z,17.13
2023-05-17T13:02:21.379Z,17.08
2023-05-17T13:04:50.224Z,16.92
2023-05-17T13:07:25.252Z,16.75
2023-05-17T13:09:54.099Z,16.57
2023-05-17T13:12:24.653Z,16.49
2023-05-17T13:14:55.064Z,16.44
2023-05-17T13:17:35.670Z,16.42
2023-05-17T13:20:05.989Z,16.46
2023-05-17T13:22:36.271Z,16.43
2023-05-17T13:25:04.905Z,16.38
2023-05-17T13:27:33.226Z,16.33
2023-05-17T13:30:02.859Z,16.35
2023-05-17T13:32:32.097Z,16.36
2023-05-17T13:35:02.410Z,16.33
2023-05-17T13:37:31.367Z,16.30
2023-05-17T13:40:00.041Z,16.31
2023-05-17T13:42:28.599Z,16.30
2023-05-17T13:44:57.402Z,16.29
2023-05-17T13:47:26.475Z,16.27
2023-05-17T13:49:55.628Z,16.24
2023-05-17T13:52:26.284Z,16.22
2023-05-17T13:54:54.892Z,16.19
2023-05-17T13:57:23.540Z,16.20
2023-05-17T13:59:51.968Z,16.22
2023-05-17T14:02:20.682Z,16.21
2023-05-17T14:04:49.184Z,16.22
2023-05-17T14:07:17.700Z,16.22
2023-05-17T14:09:46.925Z,16.23
2023-05-17T14:12:15.266Z,16.22
2023-05-17T14:14:43.717Z,16.23
2023-05-17T14:17:12.787Z,16.23
2023-05-17T14:19:41.099Z,16.23
2023-05-17T14:22:09.635Z,16.26
2023-05-17T14:24:38.475Z,16.31
2023-05-17T14:27:07.039Z,16.38
2023-05-17T14:29:35.412Z,16.39
2023-05-17T14:32:04.765Z,16.39
2023-05-17T14:34:34.742Z,16.32
2023-05-17T14:37:04.443Z,16.20
2023-05-17T14:39:33.175Z,16.11
2023-05-17T14:42:01.572Z,16.05
2023-05-17T14:44:30.170Z,15.96
2023-05-17T14:46:59.336Z,15.88
2023-05-17T14:49:28.019Z,15.84
2023-05-17T14:51:56.915Z,15.80
2023-05-17T14:54:26.446Z,15.78
2023-05-17T14:56:54.980Z,15.73
2023-05-17T14:59:24.810Z,15.68
2023-05-17T15:01:53.747Z,15.67
2023-05-17T15:04:22.395Z,15.64
2023-05-17T15:06:51.640Z,15.65
2023-05-17T15:09:23.012Z,15.66
2023-05-17T15:11:51.649Z,15.68
2023-05-17T15:14:22.587Z,15.73
2023-05-17T15:16:52.948Z,15.78
2023-05-17T15:19:22.521Z,15.80
2023-05-17T15:21:51.140Z,15.77
2023-05-17T15:24:19.745Z,15.73
2023-05-17T15:26:47.971Z,15.68
2023-05-17T15:29:16.542Z,15.69
2023-05-17T15:31:45.534Z,15.67
2023-05-17T15:34:14.777Z,15.64
2023-05-17T15:36:43.476Z,15.62
2023-05-17T15:39:11.980Z,15.65
2023-05-17T15:41:40.679Z,15.66
2023-05-17T15:44:09.369Z,15.63
2023-05-17T15:46:38.090Z,15.60
2023-05-17T15:49:06.863Z,15.60
2023-05-17T15:51:35.225Z,15.62
2023-05-17T15:54:03.599Z,15.61
2023-05-17T15:56:32.207Z,15.59
2023-05-17T15:59:02.559Z,15.60
2023-05-17T16:01:31.345Z,15.60
2023-05-17T16:04:00.124Z,15.61
2023-05-17T16:06:34.848Z,15.57
2023-05-17T16:09:03.660Z,15.54
2023-05-17T16:11:32.530Z,15.51
2023-05-17T16:14:00.991Z,15.49
2023-05-17T16:16:29.780Z,15.47
2023-05-17T16:18:59.530Z,15.43
2023-05-17T16:21:28.737Z,15.41
2023-05-17T16:23:58.108Z,15.40
2023-05-17T16:26:26.681Z,15.37
2023-05-17T16:28:57.009Z,15.28
2023-05-17T16:31:25.983Z,15.21
2023-05-17T16:33:54.339Z,15.16
2023-05-17T16:36:22.746Z,15.09
2023-05-17T16:38:51.957Z,15.05
2023-05-17T16:41:20.332Z,15.01
2023-05-17T16:43:48.646Z,14.98
2023-05-17T16:46:19.165Z,14.96
2023-05-17T16:48:47.823Z,14.94
2023-05-17T16:51:16.716Z,14.93
2023-05-17T16:53:45.050Z,14.94
2023-05-17T16:56:13.247Z,14.91
2023-05-17T16:58:41.738Z,14.85
2023-05-17T17:01:09.994Z,14.81
2023-05-17T17:03:38.240Z,14.77
2023-05-17T17:06:06.540Z,14.72
2023-05-17T17:08:34.623Z,14.64
2023-05-17T17:11:03.109Z,14.61
2023-05-17T17:13:31.672Z,14.59
2023-05-17T17:16:00.346Z,14.58
2023-05-17T17:18:29.594Z,14.57
2023-05-17T17:20:58.004Z,14.57
2023-05-17T17:23:26.802Z,14.55
2023-05-17T17:25:55.029Z,14.55
2023-05-17T17:28:23.624Z,14.56
2023-05-17T17:30:52.036Z,14.53
2023-05-17T17:33:20.425Z,14.53
2023-05-17T17:35:48.702Z,14.53
2023-05-17T17:38:17.043Z,14.53
2023-05-17T17:40:45.145Z,14.54
2023-05-17T17:43:13.089Z,14.53
2023-05-17T17:45:41.785Z,14.53
2023-05-17T17:48:10.182Z,14.53
2023-05-17T17:50:38.467Z,14.52
2023-05-17T17:53:06.964Z,14.49
2023-05-17T17:55:35.215Z,14.44
2023-05-17T17:58:03.352Z,14.38
2023-05-17T18:00:31.842Z,14.36
2023-05-17T18:03:00.410Z,14.32
2023-05-17T18:05:28.702Z,14.29
2023-05-17T18:07:57.328Z,14.25
2023-05-17T18:10:25.891Z,14.22
2023-05-17T18:12:54.376Z,14.21
2023-05-17T18:15:22.495Z,14.19
2023-05-17T18:17:52.263Z,14.18
2023-05-17T18:20:22.791Z,14.16
2023-05-17T18:22:50.785Z,14.14
2023-05-17T18:25:19.065Z,14.13
2023-05-17T18:27:47.163Z,14.12
2023-05-17T18:30:15.751Z,14.14
2023-05-17T18:32:44.269Z,14.15
2023-05-17T18:35:12.587Z,14.16
2023-05-17T18:37:40.621Z,14.18
2023-05-17T18:40:09.116Z,14.19
2023-05-17T18:42:37.384Z,14.19
2023-05-17T18:45:06.802Z,14.19
2023-05-17T18:47:34.996Z,14.19
2023-05-17T18:50:03.346Z,14.18
2023-05-17T18:52:31.718Z,14.16
2023-05-17T18:55:00.154Z,14.17
2023-05-17T18:57:29.850Z,14.17
2023-05-17T18:59:57.963Z,14.18
2023-05-17T19:02:26.558Z,14.21
2023-05-17T19:04:55.035Z,14.22
2023-05-17T19:07:23.234Z,14.22
2023-05-17T19:09:51.495Z,14.21
2023-05-17T19:12:19.575Z,14.20
2023-05-17T19:14:48.048Z,14.17
2023-05-17T19:17:16.261Z,14.15
2023-05-17T19:19:44.650Z,14.11
2023-05-17T19:22:13.189Z,14.08
2023-05-17T19:24:41.442Z,14.05
2023-05-17T19:27:10.900Z,14.04
2023-05-17T19:29:39.128Z,14.04
2023-05-17T19:32:07.676Z,14.03
2023-05-17T19:34:35.646Z,14.00
2023-05-17T19:37:04.290Z,13.97
2023-05-17T19:39:34.952Z,13.95
2023-05-17T19:42:03.115Z,13.96
2023-05-17T19:44:31.495Z,13.97
2023-05-17T19:46:59.531Z,13.99
2023-05-17T19:49:27.968Z,14.01
2023-05-17T19:52:00.763Z,14.00
2023-05-17T19:54:29.701Z,13.99
2023-05-17T19:56:58.345Z,13.97
2023-05-17T19:59:26.690Z,13.96
2023-05-17T20:01:55.322Z,13.94
2023-05-17T20:04:23.705Z,13.92
2023-05-17T20:06:52.804Z,13.91
2023-05-17T20:09:21.032Z,13.90
2023-05-17T20:11:49.206Z,13.90
2023-05-17T20:14:17.257Z,13.89
2023-05-17T20:16:45.315Z,13.89
2023-05-17T20:19:13.612Z,13.89
2023-05-17T20:21:42.371Z,13.87
2023-05-17T20:24:10.940Z,13.83
2023-05-17T20:26:39.806Z,13.80
2023-05-17T20:29:08.290Z,13.75
2023-05-17T20:31:37.169Z,13.71
2023-05-17T20:34:06.630Z,13.70
2023-05-17T20:36:34.763Z,13.69
2023-05-17T20:39:03.628Z,13.69
2023-05-17T20:41:31.639Z,13.68
2023-05-17T20:43:59.876Z,13.66
2023-05-17T20:46:31.301Z,13.67
2023-05-17T20:49:01.145Z,13.67
2023-05-17T20:51:29.267Z,13.63
2023-05-17T20:53:57.370Z,13.63
2023-05-17T20:56:25.967Z,13.66
2023-05-17T20:58:53.993Z,13.69
2023-05-17T21:01:22.679Z,13.70
2023-05-17T21:03:51.722Z,13.69
2023-05-17T21:06:19.857Z,13.64
2023-05-17T21:08:47.976Z,13.62
2023-05-17T21:11:21.215Z,13.58
2023-05-17T21:13:50.712Z,13.57
2023-05-17T21:16:18.895Z,13.57
2023-05-17T21:18:47.480Z,13.59
2023-05-17T21:21:18.204Z,13.62
2023-05-17T21:23:46.807Z,13.67
2023-05-17T21:26:15.333Z,13.69
2023-05-17T21:28:43.426Z,13.69
2023-05-17T21:31:11.516Z,13.68
2023-05-17T21:33:39.822Z,13.68
2023-05-17T21:36:07.903Z,13.70
2023-05-17T21:38:36.257Z,13.71
2023-05-17T21:41:04.263Z,13.69
2023-05-17T21:43:32.223Z,13.68
2023-05-17T21:46:00.499Z,13.67
2023-05-17T21:48:28.536Z,13.65
2023-05-17T21:50:56.540Z,13.62
2023-05-17T21:53:24.494Z,13.60
2023-05-17T21:56:02.143Z,13.59
2023-05-17T21:58:32.150Z,13.60
2023-05-17T22:01:00.323Z,13.59
2023-05-17T22:03:28.592Z,13.59
2023-05-17T22:05:56.761Z,13.61
2023-05-17T22:08:24.843Z,13.66
2023-05-17T22:10:54.609Z,13.69
2023-05-17T22:13:26.844Z,13.69
2023-05-17T22:15:57.745Z,13.69
2023-05-17T22:18:27.245Z,13.69
2023-05-17T22:20:59.519Z,13.68
2023-05-17T22:23:28.110Z,13.67
2023-05-17T22:25:57.416Z,13.66
2023-05-17T22:28:25.578Z,13.68
2023-05-17T22:30:54.989Z,13.70
2023-05-17T22:33:26.095Z,13.73
2023-05-17T22:35:54.310Z,13.77
2023-05-17T22:38:25.855Z,13.81
2023-05-17T22:40:54.556Z,13.83
2023-05-17T22:43:22.731Z,13.85
2023-05-17T22:45:51.295Z,13.86
2023-05-17T22:48:20.219Z,13.86
2023-05-17T22:50:48.353Z,13.85
2023-05-17T22:53:18.703Z,13.83
2023-05-17T22:55:49.191Z,13.79
2023-05-17T22:58:18.186Z,13.75
2023-05-17T23:00:47.349Z,13.71
2023-05-17T23:03:15.533Z,13.68
2023-05-17T23:05:45.673Z,13.65
2023-05-17T23:08:15.736Z,13.63
2023-05-17T23:10:46.714Z,13.62
2023-05-17T23:13:15.434Z,13.60
2023-05-17T23:15:46.983Z,13.58
2023-05-17T23:18:16.250Z,13.56
2023-05-17T23:20:46.418Z,13.49
2023-05-17T23:23:15.828Z,13.52
2023-05-17T23:25:48.529Z,13.57
2023-05-17T23:28:16.726Z,13.63
2023-05-17T23:30:48.797Z,13.67
2023-05-17T23:33:19.139Z,13.70
2023-05-17T23:35:47.157Z,13.71
2023-05-17T23:38:15.270Z,13.71
2023-05-17T23:40:43.917Z,13.70
2023-05-17T23:43:11.894Z,13.68
2023-05-17T23:45:39.998Z,13.64
2023-05-17T23:48:09.921Z,13.61
2023-05-17T23:50:39.279Z,13.59
2023-05-17T23:53:10.018Z,13.53
2023-05-17T23:55:38.765Z,13.48
2023-05-17T23:58:06.950Z,13.42
